Perpignan, France

09:02 CET le 06 Mars 2015 (GMT +0100)
Rivesaltes | Change Station
CLOSE
Current Station
Aéroport
Location: Perpignan,
Altitude: 154 ft
Stations météo à proximité

Alt. 154 ft 42.74 °N, 2.87 °E | Updated 32 minutes ago

Clear
Ciel dégagé
50 ° F
Paraît 50 ° F
N
15
Vent Variable Vent de NO

Aujourd'hui
Haut(e) -- | Bas -- ° F
--% Risque de précip.
Hier
Haut(e) -- | Bas -- ° F
Precip. -- pouce
7:16 AM 6:43 PM
Pleine lune, 100% visible
Pression 30.48 pouce
Visibilité 6.2 Miles terrestres
Nuages
Point de rosée 19 ° F
Humidité 30%
Précipitations 0.00 pouce
Profondeur de la couche neigeuse Non disponible.
UV Non disponible.
Pollen Non disponible.
Qualité de l'air Non disponible.
Flu Activity Non disponible.
METAR LFMP 060730Z AUTO 32013KT 9999 NSC 10/M07 Q1032

More Conditions Fewer Conditions

Pression 30.48 pouce
Visibilité 6.2 Miles terrestres
Nuages
Point de rosée 19 ° F
Humidité 30%
Précipitations 0.00 pouce
Profondeur de la couche neigeuse Non disponible.
UV Non disponible.
Pollen Non disponible.
Qualité de l'air Non disponible.
Flu Activity Non disponible.
METAR LFMP 060730Z AUTO 32013KT 9999 NSC 10/M07 Q1032

More Conditions Fewer Conditions

10-Day Weather Forecast

Almanac

Astronomie

Mar. 06, 2015 Lever Coucher
Temps réel
Crépuscule civil
Crépuscule nautique
Crépuscule astronomique
Lune
Durée de lumière visible
Longueur du jour
Tomorrow will be .
, % of the Moon is Illuminated

Extrêmes aujourd'hui

Country Highs Country Lows

Community

WunderPhotos

Upload Photos

1,803,199 Photos téléchargées !

WunderBlogs® & News

Nearby

Qualité de l'air

  Qualité de l'air Indice de la qualité de l'air Polluant
Not available.

Épaisseur de neige

Station Depth Altitude

Activité sismique

Ville Distance Mag. Time & Date
Minimum magnitude displayed is 2.5.

Températures des eaux côtières

Lieu Température

Stations météo à proximité